Home   Weather   USA   Arcata   Past weeks
Flag for USA

Past Weather in Arcata, California, USA — Yesterday and Last 2 Weeks

Currently: 54 °F. Fog. (Weather station: Arcata Airport, USA). See more current weather

Past Weather in Arcata — Graph

°F

Arcata Temperature Yesterday

Maximum temperature yesterday: 63 °F (at 4:53 pm)
Minimum temperature yesterday: 52 °F (at 3:53 am)
Average temperature yesterday: 55 °F

High & Low Weather Summary for the Past Weeks

 TemperatureHumidityPressure
High68 °F (Jun 14, 3:53 pm)97% (Jun 10, 6:34 am)30.23 "Hg (Jun 10, 6:34 am)
Low43 °F (Jun 19, 3:53 am)42% (Jun 14, 3:53 pm)29.89 "Hg (Jun 19, 5:01 am)
Average55 °F82%30.03 "Hg
* Reported Jun 8 6:53 am — Jun 23 6:53 am, Arcata. Weather by CustomWeather, © 2024

Note: Actual official high and low records may vary slightly from our data, if they occured in-between our weather recording intervals... More about our weather records

Arcata Weather History for the Previous 24 Hours

Scroll right to see more
 ConditionsComfort  
Time TempWeatherWind HumidityBarometerVisibility
6:53 am
Sun, Jun 23
54 °FFog.3 mph93%30.01 "Hg1 mi
6:42 am54 °FFog.5 mph93%30.00 "Hg1 mi
6:07 am54 °FFog.6 mph90%30.00 "Hg1 mi
5:41 am54 °FFog.6 mph90%29.99 "Hg2 mi
4:59 am54 °FFog.No wind97%29.99 "Hg1 mi
4:35 am54 °FFog.3 mph93%29.99 "Hg1 mi
4:13 am54 °FFog.No wind97%29.99 "Hg2 mi
3:53 am54 °FFog.No wind97%30.00 "Hg1 mi
3:01 am54 °FFog.5 mph93%29.99 "Hg1 mi
2:40 am54 °FFog.5 mph93%29.99 "Hg1 mi
2:21 am54 °FFog.No wind93%29.99 "Hg1 mi
1:53 am54 °FFog.3 mph93%30.01 "Hg1 mi
1:14 am55 °FFog.No wind90%30.00 "Hg1 mi
12:06 am54 °FPassing clouds.No wind86%30.00 "Hg10 mi
11:53 pm
Sat, Jun 22
53 °FPassing clouds.3 mph86%30.02 "Hg10 mi
11:26 pm54 °FPassing clouds.No wind90%30.00 "Hg10 mi
11:00 pm55 °FFog.3 mph90%30.00 "Hg6 mi
9:53 pm56 °FClear.No wind84%30.01 "Hg10 mi
8:53 pm56 °FClear.8 mph84%29.99 "Hg10 mi
7:53 pm59 °FSunny.13 mph75%29.99 "Hg10 mi
6:53 pm61 °FSunny.15 mph67%29.97 "Hg10 mi
5:53 pm61 °FSunny.12 mph70%29.98 "Hg10 mi
4:53 pm63 °FSunny.7 mph65%29.98 "Hg10 mi
3:53 pm61 °FSunny.7 mph70%29.99 "Hg10 mi
2:53 pm61 °FSunny.8 mph70%29.98 "Hg10 mi
1:53 pm57 °FPassing clouds.7 mph81%29.98 "Hg10 mi
1:27 pm57 °FPartly sunny.7 mph81%29.97 "Hg8 mi
12:53 pm58 °FLow clouds.6 mph78%29.98 "Hg10 mi
11:53 am55 °FLow clouds.7 mph87%29.97 "Hg7 mi
11:42 am55 °FLow clouds.7 mph87%29.96 "Hg7 mi
11:08 am55 °FLow clouds.6 mph87%29.94 "Hg7 mi
9:53 am53 °FFog.3 mph96%29.95 "Hg3 mi
8:53 am52 °FFog.6 mph93%29.94 "Hg1 mi
8:40 am52 °FFog.5 mph89%29.92 "Hg1 mi
8:29 am53 °FFog.7 mph86%29.92 "Hg1 mi
Weather by CustomWeather, © 2024

See weather overview